sensor_id;sensor_type;location;lat;lon;timestamp;pressure;altitude;pressure_sealevel;temperature;humidity
80102;BME280;69407;44.966;19.622;2023-07-13T00:01:30;100555.72;;;25.59;70.71
80102;BME280;69407;44.966;19.622;2023-07-13T00:03:57;100554.41;;;25.71;69.86
80102;BME280;69407;44.966;19.622;2023-07-13T00:06:22;100550.16;;;25.77;69.74
80102;BME280;69407;44.966;19.622;2023-07-13T00:08:48;100544.59;;;25.70;69.31
80102;BME280;69407;44.966;19.622;2023-07-13T00:11:15;100554.69;;;25.43;69.33
80102;BME280;69407;44.966;19.622;2023-07-13T00:13:41;100554.34;;;25.30;70.39
80102;BME280;69407;44.966;19.622;2023-07-13T00:16:09;100548.63;;;25.33;70.93
80102;BME280;69407;44.966;19.622;2023-07-13T00:18:34;100549.63;;;25.32;70.45
80102;BME280;69407;44.966;19.622;2023-07-13T00:21:00;100548.63;;;25.33;71.17
80102;BME280;69407;44.966;19.622;2023-07-13T00:23:31;100540.97;;;25.29;71.19
80102;BME280;69407;44.966;19.622;2023-07-13T00:25:59;100541.13;;;25.11;72.31
80102;BME280;69407;44.966;19.622;2023-07-13T00:28:25;100536.06;;;25.16;72.09
80102;BME280;69407;44.966;19.622;2023-07-13T00:30:50;100543.66;;;25.12;72.01
80102;BME280;69407;44.966;19.622;2023-07-13T00:33:16;100536.75;;;25.18;71.85
80102;BME280;69407;44.966;19.622;2023-07-13T00:35:41;100538.78;;;25.24;71.56
80102;BME280;69407;44.966;19.622;2023-07-13T00:38:09;100547.25;;;25.21;71.25
80102;BME280;69407;44.966;19.622;2023-07-13T00:40:34;100545.03;;;25.17;71.15
80102;BME280;69407;44.966;19.622;2023-07-13T00:43:00;100543.75;;;24.95;72.08
80102;BME280;69407;44.966;19.622;2023-07-13T00:47:51;100540.22;;;24.94;71.87
80102;BME280;69407;44.966;19.622;2023-07-13T00:50:18;100537.75;;;25.09;71.31
80102;BME280;69407;44.966;19.622;2023-07-13T00:52:48;100537.50;;;24.86;71.68
80102;BME280;69407;44.966;19.622;2023-07-13T00:55:15;100533.19;;;24.67;72.00
80102;BME280;69407;44.966;19.622;2023-07-13T00:57:42;100536.06;;;24.66;71.73
80102;BME280;69407;44.966;19.622;2023-07-13T01:00:08;100536.09;;;24.74;71.24
80102;BME280;69407;44.966;19.622;2023-07-13T01:02:35;100533.31;;;25.00;69.83
80102;BME280;69407;44.966;19.622;2023-07-13T01:05:18;100534.25;;;24.74;70.26
80102;BME280;69407;44.966;19.622;2023-07-13T01:07:45;100540.13;;;24.62;71.03
80102;BME280;69407;44.966;19.622;2023-07-13T01:10:14;100538.56;;;24.59;71.12
80102;BME280;69407;44.966;19.622;2023-07-13T01:12:39;100529.03;;;24.81;70.44
80102;BME280;69407;44.966;19.622;2023-07-13T01:15:32;100528.22;;;24.89;70.17
80102;BME280;69407;44.966;19.622;2023-07-13T01:17:51;100530.88;;;24.80;70.00
80102;BME280;69407;44.966;19.622;2023-07-13T01:20:17;100526.94;;;24.67;71.02
80102;BME280;69407;44.966;19.622;2023-07-13T01:22:42;100526.28;;;24.65;71.17
80102;BME280;69407;44.966;19.622;2023-07-13T01:25:08;100525.25;;;24.66;70.78
80102;BME280;69407;44.966;19.622;2023-07-13T01:27:33;100521.03;;;24.63;70.87
80102;BME280;69407;44.966;19.622;2023-07-13T01:29:59;100517.28;;;24.56;71.17
80102;BME280;69407;44.966;19.622;2023-07-13T01:32:29;100528.72;;;24.16;72.87
80102;BME280;69407;44.966;19.622;2023-07-13T01:34:56;100513.38;;;23.90;74.38
80102;BME280;69407;44.966;19.622;2023-07-13T01:37:24;100519.38;;;24.10;73.75
80102;BME280;69407;44.966;19.622;2023-07-13T01:39:49;100511.44;;;24.35;72.49
80102;BME280;69407;44.966;19.622;2023-07-13T01:42:15;100516.44;;;23.95;73.22
80102;BME280;69407;44.966;19.622;2023-07-13T01:44:41;100513.00;;;24.11;72.77
80102;BME280;69407;44.966;19.622;2023-07-13T01:47:06;100502.22;;;24.11;72.89
80102;BME280;69407;44.966;19.622;2023-07-13T01:49:32;100503.91;;;24.12;72.97
80102;BME280;69407;44.966;19.622;2023-07-13T01:51:57;100500.88;;;24.15;73.06
80102;BME280;69407;44.966;19.622;2023-07-13T01:54:23;100495.03;;;24.28;72.41
80102;BME280;69407;44.966;19.622;2023-07-13T01:56:48;100505.88;;;24.02;73.05
80102;BME280;69407;44.966;19.622;2023-07-13T01:59:14;100510.84;;;23.89;73.28
80102;BME280;69407;44.966;19.622;2023-07-13T02:01:39;100519.19;;;24.04;72.61
80102;BME280;69407;44.966;19.622;2023-07-13T02:04:05;100511.66;;;24.15;72.47
80102;BME280;69407;44.966;19.622;2023-07-13T02:06:31;100510.94;;;24.05;71.67
80102;BME280;69407;44.966;19.622;2023-07-13T02:08:58;100500.50;;;24.10;71.59
80102;BME280;69407;44.966;19.622;2023-07-13T02:11:24;100494.94;;;23.86;72.62
80102;BME280;69407;44.966;19.622;2023-07-13T02:13:50;100498.94;;;24.00;72.31
80102;BME280;69407;44.966;19.622;2023-07-13T02:16:16;100495.34;;;23.91;71.79
80102;BME280;69407;44.966;19.622;2023-07-13T02:18:41;100504.09;;;23.93;72.45
80102;BME280;69407;44.966;19.622;2023-07-13T02:21:06;100512.03;;;23.94;72.78
80102;BME280;69407;44.966;19.622;2023-07-13T02:23:32;100505.28;;;23.90;72.81
80102;BME280;69407;44.966;19.622;2023-07-13T02:25:59;100503.38;;;23.83;73.52
80102;BME280;69407;44.966;19.622;2023-07-13T02:28:25;100500.06;;;23.71;73.47
80102;BME280;69407;44.966;19.622;2023-07-13T02:30:51;100500.88;;;23.89;72.30
80102;BME280;69407;44.966;19.622;2023-07-13T02:33:16;100497.06;;;23.74;73.39
80102;BME280;69407;44.966;19.622;2023-07-13T02:35:42;100482.50;;;23.49;74.34
80102;BME280;69407;44.966;19.622;2023-07-13T02:38:07;100491.47;;;23.32;75.88
80102;BME280;69407;44.966;19.622;2023-07-13T02:40:34;100483.22;;;23.51;75.21
80102;BME280;69407;44.966;19.622;2023-07-13T02:43:01;100492.78;;;23.63;74.82
80102;BME280;69407;44.966;19.622;2023-07-13T02:45:27;100485.75;;;23.53;75.22
80102;BME280;69407;44.966;19.622;2023-07-13T02:47:53;100489.38;;;23.61;74.54
80102;BME280;69407;44.966;19.622;2023-07-13T02:50:18;100499.09;;;23.54;75.26
80102;BME280;69407;44.966;19.622;2023-07-13T02:52:44;100502.75;;;23.63;74.77
80102;BME280;69407;44.966;19.622;2023-07-13T02:55:09;100510.66;;;23.64;74.81
80102;BME280;69407;44.966;19.622;2023-07-13T02:57:35;100513.41;;;23.73;74.05
80102;BME280;69407;44.966;19.622;2023-07-13T03:00:02;100518.66;;;23.56;74.83
80102;BME280;69407;44.966;19.622;2023-07-13T03:02:31;100511.13;;;23.42;75.20
80102;BME280;69407;44.966;19.622;2023-07-13T03:04:58;100518.81;;;23.37;75.46
80102;BME280;69407;44.966;19.622;2023-07-13T03:07:24;100527.31;;;23.42;75.26
80102;BME280;69407;44.966;19.622;2023-07-13T03:09:57;100532.38;;;23.45;75.34
80102;BME280;69407;44.966;19.622;2023-07-13T03:12:24;100524.97;;;23.47;75.96
80102;BME280;69407;44.966;19.622;2023-07-13T03:14:49;100532.16;;;23.21;77.27
80102;BME280;69407;44.966;19.622;2023-07-13T03:17:15;100519.97;;;23.34;76.93
80102;BME280;69407;44.966;19.622;2023-07-13T03:19:41;100527.00;;;23.45;77.03
80102;BME280;69407;44.966;19.622;2023-07-13T03:22:06;100515.44;;;23.35;77.03
80102;BME280;69407;44.966;19.622;2023-07-13T03:24:35;100522.59;;;23.44;77.25
80102;BME280;69407;44.966;19.622;2023-07-13T03:27:05;100527.13;;;23.26;78.04
80102;BME280;69407;44.966;19.622;2023-07-13T03:29:31;100527.91;;;23.54;76.97
80102;BME280;69407;44.966;19.622;2023-07-13T03:31:56;100532.06;;;23.48;77.30
80102;BME280;69407;44.966;19.622;2023-07-13T03:34:22;100530.00;;;23.60;76.03
80102;BME280;69407;44.966;19.622;2023-07-13T03:36:47;100517.06;;;23.63;76.14
80102;BME280;69407;44.966;19.622;2023-07-13T03:39:13;100530.38;;;23.47;76.65
80102;BME280;69407;44.966;19.622;2023-07-13T03:41:38;100524.31;;;23.27;77.66
80102;BME280;69407;44.966;19.622;2023-07-13T03:44:04;100524.78;;;23.58;77.50
80102;BME280;69407;44.966;19.622;2023-07-13T03:46:30;100529.59;;;23.73;77.06
80102;BME280;69407;44.966;19.622;2023-07-13T03:48:55;100539.53;;;23.90;76.08
80102;BME280;69407;44.966;19.622;2023-07-13T03:51:21;100546.09;;;24.13;74.59
80102;BME280;69407;44.966;19.622;2023-07-13T03:53:48;100545.75;;;24.16;74.75
80102;BME280;69407;44.966;19.622;2023-07-13T03:56:14;100539.72;;;23.96;76.07
80102;BME280;69407;44.966;19.622;2023-07-13T03:58:42;100536.28;;;23.86;76.54
80102;BME280;69407;44.966;19.622;2023-07-13T04:01:08;100517.97;;;23.54;77.06
80102;BME280;69407;44.966;19.622;2023-07-13T04:03:34;100511.19;;;23.68;75.96
80102;BME280;69407;44.966;19.622;2023-07-13T04:06:04;100504.19;;;23.75;75.03
80102;BME280;69407;44.966;19.622;2023-07-13T04:08:33;100499.28;;;23.79;74.87
80102;BME280;69407;44.966;19.622;2023-07-13T04:10:59;100500.72;;;23.91;73.59
80102;BME280;69407;44.966;19.622;2023-07-13T04:13:26;100507.72;;;24.02;73.63
80102;BME280;69407;44.966;19.622;2023-07-13T04:15:52;100519.28;;;23.94;74.00
80102;BME280;69407;44.966;19.622;2023-07-13T04:18:18;100502.91;;;24.21;73.14
80102;BME280;69407;44.966;19.622;2023-07-13T04:20:48;100506.31;;;24.23;73.18
80102;BME280;69407;44.966;19.622;2023-07-13T04:23:17;100512.50;;;24.16;74.25
80102;BME280;69407;44.966;19.622;2023-07-13T04:25:47;100512.69;;;23.88;76.45
80102;BME280;69407;44.966;19.622;2023-07-13T04:28:17;100514.06;;;23.92;77.47
80102;BME280;69407;44.966;19.622;2023-07-13T04:30:43;100523.13;;;24.43;74.79
80102;BME280;69407;44.966;19.622;2023-07-13T04:33:08;100527.31;;;24.72;73.16
80102;BME280;69407;44.966;19.622;2023-07-13T04:35:34;100524.81;;;24.95;72.47
80102;BME280;69407;44.966;19.622;2023-07-13T04:38:00;100522.63;;;24.90;71.28
80102;BME280;69407;44.966;19.622;2023-07-13T04:40:27;100528.94;;;25.07;70.83
80102;BME280;69407;44.966;19.622;2023-07-13T04:42:53;100549.63;;;24.82;72.48
80102;BME280;69407;44.966;19.622;2023-07-13T04:45:18;100561.00;;;24.94;71.94
80102;BME280;69407;44.966;19.622;2023-07-13T04:47:44;100563.97;;;25.25;71.00
80102;BME280;69407;44.966;19.622;2023-07-13T04:50:12;100579.50;;;25.15;70.73
80102;BME280;69407;44.966;19.622;2023-07-13T04:52:41;100588.72;;;25.46;69.33
80102;BME280;69407;44.966;19.622;2023-07-13T04:55:07;100595.75;;;25.31;70.16
80102;BME280;69407;44.966;19.622;2023-07-13T04:57:33;100601.72;;;25.67;69.30
80102;BME280;69407;44.966;19.622;2023-07-13T04:59:59;100604.09;;;25.46;70.02
80102;BME280;69407;44.966;19.622;2023-07-13T05:02:26;100613.81;;;25.14;71.07
80102;BME280;69407;44.966;19.622;2023-07-13T05:04:53;100600.59;;;25.69;68.91
80102;BME280;69407;44.966;19.622;2023-07-13T05:07:18;100598.72;;;25.86;68.31
80102;BME280;69407;44.966;19.622;2023-07-13T05:09:44;100603.44;;;25.60;68.71
80102;BME280;69407;44.966;19.622;2023-07-13T05:12:10;100601.97;;;25.82;68.25
80102;BME280;69407;44.966;19.622;2023-07-13T05:14:36;100617.16;;;26.23;67.92
80102;BME280;69407;44.966;19.622;2023-07-13T05:17:01;100617.66;;;25.78;69.42
80102;BME280;69407;44.966;19.622;2023-07-13T05:19:27;100615.66;;;25.72;69.66
80102;BME280;69407;44.966;19.622;2023-07-13T05:21:52;100615.31;;;25.83;70.40
80102;BME280;69407;44.966;19.622;2023-07-13T05:24:18;100609.19;;;26.22;68.23
80102;BME280;69407;44.966;19.622;2023-07-13T05:26:44;100609.50;;;26.35;68.36
80102;BME280;69407;44.966;19.622;2023-07-13T05:29:09;100613.38;;;26.49;67.26
80102;BME280;69407;44.966;19.622;2023-07-13T05:31:36;100619.66;;;26.49;66.38
80102;BME280;69407;44.966;19.622;2023-07-13T05:34:01;100605.44;;;26.39;68.34
80102;BME280;69407;44.966;19.622;2023-07-13T05:36:27;100596.91;;;26.67;66.15
80102;BME280;69407;44.966;19.622;2023-07-13T05:38:52;100577.03;;;26.03;68.71
80102;BME280;69407;44.966;19.622;2023-07-13T05:41:18;100576.38;;;25.76;70.30
80102;BME280;69407;44.966;19.622;2023-07-13T05:43:43;100565.22;;;25.79;71.60
80102;BME280;69407;44.966;19.622;2023-07-13T05:46:09;100573.00;;;25.98;70.91
80102;BME280;69407;44.966;19.622;2023-07-13T05:48:34;100568.94;;;25.86;72.97
80102;BME280;69407;44.966;19.622;2023-07-13T05:51:01;100576.50;;;26.15;70.35
80102;BME280;69407;44.966;19.622;2023-07-13T05:53:26;100590.75;;;26.17;68.99
80102;BME280;69407;44.966;19.622;2023-07-13T05:55:54;100608.47;;;26.52;67.34
80102;BME280;69407;44.966;19.622;2023-07-13T05:58:19;100620.38;;;26.43;68.66
80102;BME280;69407;44.966;19.622;2023-07-13T06:00:46;100637.91;;;26.64;68.28
80102;BME280;69407;44.966;19.622;2023-07-13T06:03:11;100638.00;;;26.86;67.21
80102;BME280;69407;44.966;19.622;2023-07-13T06:05:38;100629.59;;;27.12;63.40
80102;BME280;69407;44.966;19.622;2023-07-13T06:08:04;100638.38;;;27.23;62.79
80102;BME280;69407;44.966;19.622;2023-07-13T06:10:33;100643.28;;;27.27;60.23
80102;BME280;69407;44.966;19.622;2023-07-13T06:12:58;100654.25;;;27.34;58.88
80102;BME280;69407;44.966;19.622;2023-07-13T06:15:24;100656.94;;;27.42;59.61
80102;BME280;69407;44.966;19.622;2023-07-13T06:17:49;100652.03;;;27.37;61.64
80102;BME280;69407;44.966;19.622;2023-07-13T06:20:15;100643.63;;;27.55;62.47
80102;BME280;69407;44.966;19.622;2023-07-13T06:22:40;100644.31;;;27.49;64.02
80102;BME280;69407;44.966;19.622;2023-07-13T06:25:06;100647.31;;;27.85;63.30
80102;BME280;69407;44.966;19.622;2023-07-13T06:27:32;100654.34;;;28.02;63.10
80102;BME280;69407;44.966;19.622;2023-07-13T06:29:57;100663.97;;;28.05;63.15
80102;BME280;69407;44.966;19.622;2023-07-13T06:32:22;100672.72;;;28.15;63.69
80102;BME280;69407;44.966;19.622;2023-07-13T06:34:48;100654.84;;;27.98;60.69
80102;BME280;69407;44.966;19.622;2023-07-13T06:37:13;100666.63;;;28.13;60.92
80102;BME280;69407;44.966;19.622;2023-07-13T06:39:39;100651.25;;;28.43;61.20
80102;BME280;69407;44.966;19.622;2023-07-13T06:42:05;100653.50;;;28.40;59.17
80102;BME280;69407;44.966;19.622;2023-07-13T06:44:31;100650.16;;;28.52;58.67
80102;BME280;69407;44.966;19.622;2023-07-13T06:46:56;100655.31;;;28.77;59.87
80102;BME280;69407;44.966;19.622;2023-07-13T06:49:22;100645.00;;;28.72;58.74
80102;BME280;69407;44.966;19.622;2023-07-13T06:51:47;100652.78;;;28.75;56.86
80102;BME280;69407;44.966;19.622;2023-07-13T06:54:13;100651.84;;;29.12;56.25
80102;BME280;69407;44.966;19.622;2023-07-13T06:56:39;100651.47;;;29.15;55.27
80102;BME280;69407;44.966;19.622;2023-07-13T06:59:04;100639.09;;;29.13;56.74
80102;BME280;69407;44.966;19.622;2023-07-13T07:01:30;100629.97;;;29.21;56.77
80102;BME280;69407;44.966;19.622;2023-07-13T07:03:55;100638.34;;;29.40;58.15
80102;BME280;69407;44.966;19.622;2023-07-13T07:06:22;100637.69;;;29.53;58.13
80102;BME280;69407;44.966;19.622;2023-07-13T07:08:52;100636.84;;;29.53;57.81
80102;BME280;69407;44.966;19.622;2023-07-13T07:11:20;100625.25;;;29.29;56.21
80102;BME280;69407;44.966;19.622;2023-07-13T07:13:47;100620.34;;;29.39;56.19
80102;BME280;69407;44.966;19.622;2023-07-13T07:16:13;100620.19;;;29.62;56.29
80102;BME280;69407;44.966;19.622;2023-07-13T07:18:39;100622.84;;;29.77;55.08
80102;BME280;69407;44.966;19.622;2023-07-13T07:21:04;100618.56;;;30.11;55.61
80102;BME280;69407;44.966;19.622;2023-07-13T07:23:30;100617.28;;;30.07;53.92
80102;BME280;69407;44.966;19.622;2023-07-13T07:25:56;100617.28;;;30.07;51.92
80102;BME280;69407;44.966;19.622;2023-07-13T07:28:21;100622.53;;;30.36;53.35
80102;BME280;69407;44.966;19.622;2023-07-13T07:30:47;100613.72;;;30.41;51.13
80102;BME280;69407;44.966;19.622;2023-07-13T07:33:14;100618.16;;;30.14;52.77
80102;BME280;69407;44.966;19.622;2023-07-13T07:35:39;100608.63;;;30.59;52.62
80102;BME280;69407;44.966;19.622;2023-07-13T07:38:05;100613.22;;;30.58;51.88
80102;BME280;69407;44.966;19.622;2023-07-13T07:40:31;100612.50;;;30.71;50.38
80102;BME280;69407;44.966;19.622;2023-07-13T07:42:57;100610.25;;;30.81;51.11
80102;BME280;69407;44.966;19.622;2023-07-13T07:45:23;100615.72;;;31.29;50.71
80102;BME280;69407;44.966;19.622;2023-07-13T07:47:50;100613.44;;;31.39;49.08
80102;BME280;69407;44.966;19.622;2023-07-13T07:50:15;100614.56;;;31.85;49.83
80102;BME280;69407;44.966;19.622;2023-07-13T07:52:41;100617.06;;;31.66;48.81
80102;BME280;69407;44.966;19.622;2023-07-13T07:55:07;100609.53;;;31.95;47.22
80102;BME280;69407;44.966;19.622;2023-07-13T07:57:33;100615.41;;;32.45;48.09
80102;BME280;69407;44.966;19.622;2023-07-13T07:59:59;100613.84;;;33.33;43.84
80102;BME280;69407;44.966;19.622;2023-07-13T08:02:25;100610.00;;;33.03;43.38
80102;BME280;69407;44.966;19.622;2023-07-13T08:04:51;100609.47;;;33.19;44.24
80102;BME280;69407;44.966;19.622;2023-07-13T08:07:17;100615.66;;;33.84;42.16
80102;BME280;69407;44.966;19.622;2023-07-13T08:09:43;100596.41;;;34.41;39.58
80102;BME280;69407;44.966;19.622;2023-07-13T08:12:08;100590.09;;;34.58;39.09
80102;BME280;69407;44.966;19.622;2023-07-13T08:14:34;100589.13;;;34.89;38.65
80102;BME280;69407;44.966;19.622;2023-07-13T08:16:59;100577.28;;;34.71;38.66
80102;BME280;69407;44.966;19.622;2023-07-13T08:19:25;100578.03;;;34.96;40.03
80102;BME280;69407;44.966;19.622;2023-07-13T08:21:50;100577.22;;;34.95;38.93
80102;BME280;69407;44.966;19.622;2023-07-13T08:24:16;100560.69;;;36.09;36.96
80102;BME280;69407;44.966;19.622;2023-07-13T08:26:44;100562.94;;;35.05;37.63
80102;BME280;69407;44.966;19.622;2023-07-13T08:29:10;100565.09;;;38.38;34.00
80102;BME280;69407;44.966;19.622;2023-07-13T08:31:36;100577.75;;;41.12;27.46
80102;BME280;69407;44.966;19.622;2023-07-13T08:34:01;100577.38;;;43.70;23.42
80102;BME280;69407;44.966;19.622;2023-07-13T08:36:28;100576.00;;;35.93;34.89
80102;BME280;69407;44.966;19.622;2023-07-13T08:38:53;100572.69;;;35.31;35.97
80102;BME280;69407;44.966;19.622;2023-07-13T08:41:20;100581.09;;;35.78;35.27
80102;BME280;69407;44.966;19.622;2023-07-13T08:43:49;100590.72;;;34.79;38.13
80102;BME280;69407;44.966;19.622;2023-07-13T08:46:24;100587.59;;;35.23;37.34
80102;BME280;69407;44.966;19.622;2023-07-13T08:48:54;100582.16;;;34.69;36.42
80102;BME280;69407;44.966;19.622;2023-07-13T08:54:07;100574.53;;;34.52;38.79
80102;BME280;69407;44.966;19.622;2023-07-13T08:56:35;100580.09;;;34.64;38.10
80102;BME280;69407;44.966;19.622;2023-07-13T08:59:14;100583.75;;;34.58;37.43
80102;BME280;69407;44.966;19.622;2023-07-13T09:04:59;100577.28;;;34.52;37.43
80102;BME280;69407;44.966;19.622;2023-07-13T09:10:32;100584.44;;;33.54;39.46
80102;BME280;69407;44.966;19.622;2023-07-13T09:15:29;100575.75;;;34.75;37.60
80102;BME280;69407;44.966;19.622;2023-07-13T09:18:00;100577.97;;;34.23;37.66
80102;BME280;69407;44.966;19.622;2023-07-13T09:20:35;100577.78;;;33.68;38.60
80102;BME280;69407;44.966;19.622;2023-07-13T09:23:05;100574.94;;;33.18;39.58
80102;BME280;69407;44.966;19.622;2023-07-13T09:25:34;100580.25;;;33.51;38.07
80102;BME280;69407;44.966;19.622;2023-07-13T09:28:08;100565.41;;;33.90;37.48
80102;BME280;69407;44.966;19.622;2023-07-13T09:31:15;100563.69;;;33.96;37.51
80102;BME280;69407;44.966;19.622;2023-07-13T09:33:39;100558.22;;;34.14;40.04
80102;BME280;69407;44.966;19.622;2023-07-13T09:39:04;100550.25;;;34.31;36.94
80102;BME280;69407;44.966;19.622;2023-07-13T09:44:34;100554.63;;;34.93;36.88
80102;BME280;69407;44.966;19.622;2023-07-13T09:47:00;100556.09;;;34.16;37.46
80102;BME280;69407;44.966;19.622;2023-07-13T09:49:29;100556.91;;;33.73;38.40
80102;BME280;69407;44.966;19.622;2023-07-13T09:52:11;100548.50;;;34.18;38.66
80102;BME280;69407;44.966;19.622;2023-07-13T09:54:38;100549.28;;;33.75;39.19
80102;BME280;69407;44.966;19.622;2023-07-13T09:57:12;100554.88;;;34.55;38.84
80102;BME280;69407;44.966;19.622;2023-07-13T09:59:57;100546.63;;;33.94;38.43
80102;BME280;69407;44.966;19.622;2023-07-13T10:02:30;100543.97;;;34.49;38.72
80102;BME280;69407;44.966;19.622;2023-07-13T10:05:09;100540.91;;;34.38;37.74
80102;BME280;69407;44.966;19.622;2023-07-13T10:07:42;100550.13;;;34.01;38.49
80102;BME280;69407;44.966;19.622;2023-07-13T10:10:20;100540.28;;;34.18;38.04
80102;BME280;69407;44.966;19.622;2023-07-13T10:12:59;100532.78;;;34.25;39.04
80102;BME280;69407;44.966;19.622;2023-07-13T10:15:25;100529.63;;;34.47;39.68
80102;BME280;69407;44.966;19.622;2023-07-13T10:17:53;100530.81;;;34.32;37.34
80102;BME280;69407;44.966;19.622;2023-07-13T10:20:20;100537.38;;;33.88;38.91
80102;BME280;69407;44.966;19.622;2023-07-13T10:25:21;100533.13;;;34.17;38.53
80102;BME280;69407;44.966;19.622;2023-07-13T10:27:51;100533.06;;;34.79;37.65
80102;BME280;69407;44.966;19.622;2023-07-13T10:30:39;100525.28;;;34.39;38.29
80102;BME280;69407;44.966;19.622;2023-07-13T10:33:10;100529.78;;;34.70;39.97
80102;BME280;69407;44.966;19.622;2023-07-13T10:35:37;100526.78;;;34.35;40.18
80102;BME280;69407;44.966;19.622;2023-07-13T10:38:19;100526.41;;;33.88;41.42
80102;BME280;69407;44.966;19.622;2023-07-13T10:43:25;100532.97;;;34.49;39.86
80102;BME280;69407;44.966;19.622;2023-07-13T10:45:52;100529.78;;;34.70;38.47
80102;BME280;69407;44.966;19.622;2023-07-13T10:48:20;100533.41;;;35.31;40.31
80102;BME280;69407;44.966;19.622;2023-07-13T10:50:50;100524.97;;;35.44;38.31
80102;BME280;69407;44.966;19.622;2023-07-13T10:53:19;100524.47;;;35.89;38.65
80102;BME280;69407;44.966;19.622;2023-07-13T10:58:27;100517.69;;;35.61;36.13
80102;BME280;69407;44.966;19.622;2023-07-13T11:01:16;100526.38;;;35.05;37.31
80102;BME280;69407;44.966;19.622;2023-07-13T11:04:00;100531.75;;;35.11;37.34
80102;BME280;69407;44.966;19.622;2023-07-13T11:08:58;100517.84;;;34.94;36.45
80102;BME280;69407;44.966;19.622;2023-07-13T11:18:53;100510.78;;;35.17;34.73
80102;BME280;69407;44.966;19.622;2023-07-13T11:21:33;100511.41;;;35.01;35.81
80102;BME280;69407;44.966;19.622;2023-07-13T11:24:04;100506.00;;;35.54;35.46
80102;BME280;69407;44.966;19.622;2023-07-13T11:31:59;100505.25;;;35.05;35.43
80102;BME280;69407;44.966;19.622;2023-07-13T11:34:36;100492.53;;;34.74;35.57
80102;BME280;69407;44.966;19.622;2023-07-13T11:37:03;100492.16;;;34.89;35.06
80102;BME280;69407;44.966;19.622;2023-07-13T11:39:32;100483.00;;;34.77;34.82
80102;BME280;69407;44.966;19.622;2023-07-13T11:42:03;100483.63;;;34.79;36.81
80102;BME280;69407;44.966;19.622;2023-07-13T11:44:32;100480.00;;;34.66;36.20
80102;BME280;69407;44.966;19.622;2023-07-13T11:47:01;100479.03;;;34.43;37.56
80102;BME280;69407;44.966;19.622;2023-07-13T11:49:42;100472.19;;;34.82;35.04
80102;BME280;69407;44.966;19.622;2023-07-13T11:52:14;100469.41;;;34.33;37.19
80102;BME280;69407;44.966;19.622;2023-07-13T11:54:49;100466.28;;;34.97;35.18
80102;BME280;69407;44.966;19.622;2023-07-13T11:59:51;100468.84;;;34.61;34.41
80102;BME280;69407;44.966;19.622;2023-07-13T12:02:28;100462.94;;;34.46;35.63
80102;BME280;69407;44.966;19.622;2023-07-13T12:04:54;100460.34;;;34.81;36.39
80102;BME280;69407;44.966;19.622;2023-07-13T12:07:20;100454.22;;;34.67;35.57
80102;BME280;69407;44.966;19.622;2023-07-13T12:09:46;100456.91;;;34.56;37.06
80102;BME280;69407;44.966;19.622;2023-07-13T12:12:18;100453.56;;;34.54;36.00
80102;BME280;69407;44.966;19.622;2023-07-13T12:14:44;100454.66;;;34.64;36.52
80102;BME280;69407;44.966;19.622;2023-07-13T12:17:19;100452.81;;;35.07;36.16
80102;BME280;69407;44.966;19.622;2023-07-13T12:19:47;100459.50;;;35.52;35.81
80102;BME280;69407;44.966;19.622;2023-07-13T12:22:14;100472.00;;;34.95;36.20
80102;BME280;69407;44.966;19.622;2023-07-13T12:24:41;100467.88;;;34.86;36.21
80102;BME280;69407;44.966;19.622;2023-07-13T12:27:33;100458.41;;;35.42;37.12
80102;BME280;69407;44.966;19.622;2023-07-13T12:30:02;100460.94;;;35.55;36.08
80102;BME280;69407;44.966;19.622;2023-07-13T12:32:28;100474.53;;;35.85;34.97
80102;BME280;69407;44.966;19.622;2023-07-13T12:35:13;100479.09;;;35.56;36.69
80102;BME280;69407;44.966;19.622;2023-07-13T12:37:42;100488.31;;;35.20;36.80
80102;BME280;69407;44.966;19.622;2023-07-13T12:40:19;100493.44;;;35.58;38.34
80102;BME280;69407;44.966;19.622;2023-07-13T12:42:47;100491.78;;;35.80;37.55
80102;BME280;69407;44.966;19.622;2023-07-13T12:45:18;100496.44;;;35.15;38.15
80102;BME280;69407;44.966;19.622;2023-07-13T12:47:48;100483.03;;;35.48;35.77
80102;BME280;69407;44.966;19.622;2023-07-13T12:50:17;100481.44;;;36.46;35.75
80102;BME280;69407;44.966;19.622;2023-07-13T12:52:44;100483.19;;;36.00;36.45
80102;BME280;69407;44.966;19.622;2023-07-13T12:55:20;100489.16;;;36.09;35.92
80102;BME280;69407;44.966;19.622;2023-07-13T12:57:52;100482.44;;;36.17;35.89
80102;BME280;69407;44.966;19.622;2023-07-13T13:00:28;100492.75;;;35.98;35.53
80102;BME280;69407;44.966;19.622;2023-07-13T13:03:00;100493.22;;;34.88;38.46
80102;BME280;69407;44.966;19.622;2023-07-13T13:05:29;100485.88;;;35.00;40.42
80102;BME280;69407;44.966;19.622;2023-07-13T13:07:55;100495.66;;;34.96;40.45
80102;BME280;69407;44.966;19.622;2023-07-13T13:10:20;100497.66;;;34.89;41.06
80102;BME280;69407;44.966;19.622;2023-07-13T13:12:47;100505.31;;;34.32;42.68
80102;BME280;69407;44.966;19.622;2023-07-13T13:15:13;100509.69;;;34.15;42.62
80102;BME280;69407;44.966;19.622;2023-07-13T13:17:39;100519.00;;;33.64;43.80
80102;BME280;69407;44.966;19.622;2023-07-13T13:20:18;100526.06;;;33.78;43.49
80102;BME280;69407;44.966;19.622;2023-07-13T13:22:44;100522.78;;;33.69;44.29
80102;BME280;69407;44.966;19.622;2023-07-13T13:25:13;100515.63;;;33.68;43.93
80102;BME280;69407;44.966;19.622;2023-07-13T13:27:41;100516.72;;;33.29;43.79
80102;BME280;69407;44.966;19.622;2023-07-13T13:30:17;100504.28;;;33.33;43.68